Time,TemperatureF,DewpointF,PressureIn,WindDirection,WindDirectionDegrees,WindSpeedMPH,WindSpeedGustMPH,Humidity,HourlyPrecipIn,Conditions,Clouds,dailyrainin,SoftwareType,DateUTC
2013-01-27 00:11:00,15.6,2.0,30.22,NNW,331,3.0,-999.0,55,-99.99,,,0.00,weatherlink.com 1.10,2013-01-27 05:11:00,
2013-01-27 00:25:00,15.5,2.0,30.22,West,264,0.0,-999.0,56,-99.99,,,0.00,weatherlink.com 1.10,2013-01-27 05:25:00,
2013-01-27 00:41:00,15.5,2.0,30.22,WSW,249,5.0,-999.0,56,-99.99,,,0.00,weatherlink.com 1.10,2013-01-27 05:41:00,
2013-01-27 00:55:00,15.6,3.0,30.23,NNW,338,2.0,-999.0,57,-99.99,,,0.00,weatherlink.com 1.10,2013-01-27 05:55:00,
2013-01-27 01:10:00,15.5,3.0,30.24,NNW,341,0.0,-999.0,57,-99.99,,,0.00,weatherlink.com 1.10,2013-01-27 06:10:00,
2013-01-27 01:25:00,15.4,3.0,30.25,SW,219,0.0,-999.0,58,-99.99,,,0.00,weatherlink.com 1.10,2013-01-27 06:25:00,
2013-01-27 01:41:00,15.2,3.0,30.25,WNW,295,1.0,-999.0,58,-99.99,,,0.00,weatherlink.com 1.10,2013-01-27 06:41:00,
2013-01-27 01:55:00,15.2,3.0,30.25,SSW,210,4.0,-999.0,59,-99.99,,,0.00,weatherlink.com 1.10,2013-01-27 06:55:00,
2013-01-27 02:26:00,14.9,3.0,30.26,WSW,253,1.0,-999.0,60,-99.99,,,0.00,weatherlink.com 1.10,2013-01-27 07:26:00,
2013-01-27 02:40:00,14.8,3.0,30.26,West,263,0.0,-999.0,61,-99.99,,,0.00,weatherlink.com 1.10,2013-01-27 07:40:00,
2013-01-27 02:55:00,14.6,4.0,30.26,WNW,289,1.0,-999.0,62,-99.99,,,0.00,weatherlink.com 1.10,2013-01-27 07:55:00,
2013-01-27 03:10:00,14.5,4.0,30.26,NW,316,0.0,-999.0,62,-99.99,,,0.00,weatherlink.com 1.10,2013-01-27 08:10:00,
2013-01-27 03:25:00,14.6,4.0,30.27,NNW,333,3.0,-999.0,63,-99.99,,,0.00,weatherlink.com 1.10,2013-01-27 08:25:00,
2013-01-27 03:40:00,14.6,4.0,30.26,WNW,293,0.0,-999.0,63,-99.99,,,0.00,weatherlink.com 1.10,2013-01-27 08:40:00,
2013-01-27 03:55:00,14.7,4.0,30.27,WNW,299,2.0,-999.0,63,-99.99,,,0.00,weatherlink.com 1.10,2013-01-27 08:55:00,
2013-01-27 04:10:00,14.8,4.0,30.27,North,360,3.0,-999.0,63,-99.99,,,0.00,weatherlink.com 1.10,2013-01-27 09:10:00,
2013-01-27 04:25:00,14.7,5.0,30.27,WNW,284,0.0,-999.0,64,-99.99,,,0.00,weatherlink.com 1.10,2013-01-27 09:25:00,
2013-01-27 04:41:00,14.8,5.0,30.27,West,266,4.0,-999.0,64,-99.99,,,0.00,weatherlink.com 1.10,2013-01-27 09:41:00,
2013-01-27 04:55:00,15.0,5.0,30.28,NNW,340,2.0,-999.0,64,-99.99,,,0.00,weatherlink.com 1.10,2013-01-27 09:55:00,
2013-01-27 05:10:00,14.8,5.0,30.29,WSW,242,2.0,-999.0,64,-99.99,,,0.00,weatherlink.com 1.10,2013-01-27 10:10:00,
2013-01-27 05:28:00,14.5,5.0,30.29,West,267,0.0,-999.0,65,-99.99,,,0.00,weatherlink.com 1.10,2013-01-27 10:28:00,
2013-01-27 05:41:00,14.3,4.0,30.30,WSW,239,0.0,-999.0,65,-99.99,,,0.00,weatherlink.com 1.10,2013-01-27 10:41:00,
2013-01-27 05:55:00,13.9,4.0,30.30,WSW,256,0.0,-999.0,66,-99.99,,,0.00,weatherlink.com 1.10,2013-01-27 10:55:00,
2013-01-27 06:10:00,13.8,4.0,30.30,West,281,0.0,-999.0,66,-99.99,,,0.00,weatherlink.com 1.10,2013-01-27 11:10:00,
2013-01-27 06:25:00,13.9,4.0,30.30,West,266,1.0,-999.0,66,-99.99,,,0.00,weatherlink.com 1.10,2013-01-27 11:25:00,
2013-01-27 06:40:00,14.1,5.0,30.31,North,353,4.0,-999.0,66,-99.99,,,0.00,weatherlink.com 1.10,2013-01-27 11:40:00,
2013-01-27 06:55:00,14.1,5.0,30.31,WNW,303,1.0,-999.0,66,-99.99,,,0.00,weatherlink.com 1.10,2013-01-27 11:55:00,
2013-01-27 07:11:00,14.0,5.0,30.32,WNW,283,1.0,-999.0,66,-99.99,,,0.00,weatherlink.com 1.10,2013-01-27 12:11:00,
2013-01-27 07:25:00,14.1,5.0,30.33,WSW,248,1.0,-999.0,66,-99.99,,,0.00,weatherlink.com 1.10,2013-01-27 12:25:00,
2013-01-27 07:40:00,14.3,5.0,30.33,WNW,290,5.0,-999.0,66,-99.99,,,0.00,weatherlink.com 1.10,2013-01-27 12:40:00,
2013-01-27 07:56:00,14.9,5.0,30.34,WSW,250,7.0,-999.0,66,-99.99,,,0.00,weatherlink.com 1.10,2013-01-27 12:56:00,
2013-01-27 08:11:00,15.6,6.0,30.34,WNW,290,2.0,-999.0,65,-99.99,,,0.00,weatherlink.com 1.10,2013-01-27 13:11:00,
2013-01-27 08:25:00,16.4,6.0,30.35,West,272,2.0,-999.0,64,-99.99,,,0.00,weatherlink.com 1.10,2013-01-27 13:25:00,
2013-01-27 08:40:00,17.2,7.0,30.35,NW,318,1.0,-999.0,63,-99.99,,,0.00,weatherlink.com 1.10,2013-01-27 13:40:00,
2013-01-27 08:55:00,18.1,7.0,30.36,West,274,3.0,-999.0,62,-99.99,,,0.00,weatherlink.com 1.10,2013-01-27 13:55:00,
2013-01-27 09:10:00,19.3,7.0,30.36,WNW,301,5.0,-999.0,60,-99.99,,,0.00,weatherlink.com 1.10,2013-01-27 14:10:00,
2013-01-27 09:25:00,20.1,7.0,30.37,West,268,2.0,-999.0,58,-99.99,,,0.00,weatherlink.com 1.10,2013-01-27 14:25:00,
2013-01-27 09:40:00,20.9,8.0,30.37,NNW,336,3.0,-999.0,57,-99.99,,,0.00,weatherlink.com 1.10,2013-01-27 14:40:00,
2013-01-27 09:55:00,21.6,8.0,30.37,WNW,299,5.0,-999.0,55,-99.99,,,0.00,weatherlink.com 1.10,2013-01-27 14:55:00,
2013-01-27 10:10:00,22.9,8.0,30.37,North,351,0.0,-999.0,53,-99.99,,,0.00,weatherlink.com 1.10,2013-01-27 15:10:00,
2013-01-27 10:26:00,24.0,8.0,30.37,WNW,296,1.0,-999.0,50,-99.99,,,0.00,weatherlink.com 1.10,2013-01-27 15:26:00,
2013-01-27 10:40:00,24.8,8.0,30.37,WNW,290,3.0,-999.0,48,-99.99,,,0.00,weatherlink.com 1.10,2013-01-27 15:40:00,
2013-01-27 10:55:00,25.8,8.0,30.37,WNW,290,3.0,-999.0,48,-99.99,,,0.00,weatherlink.com 1.10,2013-01-27 15:55:00,
2013-01-27 11:11:00,26.3,9.0,30.37,NNW,333,1.0,-999.0,48,-99.99,,,0.00,weatherlink.com 1.10,2013-01-27 16:11:00,
2013-01-27 11:26:00,27.4,9.0,30.37,West,273,0.0,-999.0,47,-99.99,,,0.00,weatherlink.com 1.10,2013-01-27 16:26:00,
2013-01-27 11:40:00,28.4,9.0,30.36,NNW,348,6.0,-999.0,44,-99.99,,,0.00,weatherlink.com 1.10,2013-01-27 16:40:00,
2013-01-27 11:56:00,28.4,9.0,30.36,NNW,345,3.0,-999.0,44,-99.99,,,0.00,weatherlink.com 1.10,2013-01-27 16:56:00,
2013-01-27 12:10:00,29.7,10.0,30.36,WNW,295,6.0,-999.0,44,-99.99,,,0.00,weatherlink.com 1.10,2013-01-27 17:10:00,
2013-01-27 12:26:00,30.1,10.0,30.35,WSW,256,3.0,-999.0,44,-99.99,,,0.00,weatherlink.com 1.10,2013-01-27 17:26:00,
2013-01-27 12:40:00,30.6,9.0,30.35,NNW,328,0.0,-999.0,41,-99.99,,,0.00,weatherlink.com 1.10,2013-01-27 17:40:00,
2013-01-27 12:55:00,31.5,10.0,30.35,West,264,3.0,-999.0,40,-99.99,,,0.00,weatherlink.com 1.10,2013-01-27 17:55:00,
2013-01-27 13:10:00,32.3,10.0,30.35,NW,317,3.0,-999.0,40,-99.99,,,0.00,weatherlink.com 1.10,2013-01-27 18:10:00,
2013-01-27 13:25:00,32.2,10.0,30.35,NW,320,4.0,-999.0,39,-99.99,,,0.00,weatherlink.com 1.10,2013-01-27 18:25:00,
2013-01-27 13:41:00,32.7,10.0,30.35,NNW,331,0.0,-999.0,39,-99.99,,,0.00,weatherlink.com 1.10,2013-01-27 18:41:00,
2013-01-27 13:55:00,32.7,9.0,30.35,WSW,243,2.0,-999.0,37,-99.99,,,0.00,weatherlink.com 1.10,2013-01-27 18:55:00,
2013-01-27 14:10:00,33.4,10.0,30.35,NW,316,3.0,-999.0,38,-99.99,,,0.00,weatherlink.com 1.10,2013-01-27 19:10:00,
2013-01-27 14:25:00,33.3,9.0,30.35,WSW,258,0.0,-999.0,36,-99.99,,,0.00,weatherlink.com 1.10,2013-01-27 19:25:00,
2013-01-27 14:40:00,33.4,10.0,30.36,NW,312,2.0,-999.0,37,-99.99,,,0.00,weatherlink.com 1.10,2013-01-27 19:40:00,
2013-01-27 14:56:00,33.8,11.0,30.35,West,275,2.0,-999.0,38,-99.99,,,0.00,weatherlink.com 1.10,2013-01-27 19:56:00,
2013-01-27 15:10:00,33.8,9.0,30.35,WSW,241,3.0,-999.0,35,-99.99,,,0.00,weatherlink.com 1.10,2013-01-27 20:10:00,
2013-01-27 15:25:00,34.1,9.0,30.35,West,270,2.0,-999.0,35,-99.99,,,0.00,weatherlink.com 1.10,2013-01-27 20:25:00,
2013-01-27 15:40:00,33.7,9.0,30.36,WNW,299,3.0,-999.0,36,-99.99,,,0.00,weatherlink.com 1.10,2013-01-27 20:40:00,
2013-01-27 15:55:00,33.7,10.0,30.35,NNW,333,2.0,-999.0,37,-99.99,,,0.00,weatherlink.com 1.10,2013-01-27 20:55:00,
2013-01-27 16:10:00,32.8,8.0,30.35,NNW,329,0.0,-999.0,35,-99.99,,,0.00,weatherlink.com 1.10,2013-01-27 21:10:00,
2013-01-27 16:26:00,32.6,8.0,30.37,NW,316,0.0,-999.0,35,-99.99,,,0.00,weatherlink.com 1.10,2013-01-27 21:26:00,
2013-01-27 16:40:00,31.6,7.0,30.37,SSW,210,0.0,-999.0,36,-99.99,,,0.00,weatherlink.com 1.10,2013-01-27 21:40:00,
2013-01-27 16:55:00,30.3,7.0,30.38,SSW,210,0.0,-999.0,37,-99.99,,,0.00,weatherlink.com 1.10,2013-01-27 21:55:00,
2013-01-27 17:10:00,28.9,7.0,30.39,SSW,210,0.0,-999.0,39,-99.99,,,0.00,weatherlink.com 1.10,2013-01-27 22:10:00,
2013-01-27 17:26:00,27.9,6.0,30.39,SSW,210,0.0,-999.0,40,-99.99,,,0.00,weatherlink.com 1.10,2013-01-27 22:26:00,
2013-01-27 17:40:00,27.0,6.0,30.41,SSW,210,0.0,-999.0,40,-99.99,,,0.00,weatherlink.com 1.10,2013-01-27 22:40:00,
2013-01-27 17:55:00,26.1,5.0,30.41,SSW,210,0.0,-999.0,41,-99.99,,,0.00,weatherlink.com 1.10,2013-01-27 22:55:00,
2013-01-27 18:10:00,25.7,5.0,30.41,SSW,210,0.0,-999.0,41,-99.99,,,0.00,weatherlink.com 1.10,2013-01-27 23:10:00,
2013-01-27 18:26:00,24.7,7.0,30.42,SSW,210,0.0,-999.0,48,-99.99,,,0.00,weatherlink.com 1.10,2013-01-27 23:26:00,
2013-01-27 18:40:00,22.7,5.0,30.43,SSW,210,0.0,-999.0,46,-99.99,,,0.00,weatherlink.com 1.10,2013-01-27 23:40:00,
2013-01-27 18:55:00,22.7,5.0,30.43,SSW,210,0.0,-999.0,47,-99.99,,,0.00,weatherlink.com 1.10,2013-01-27 23:55:00,
2013-01-27 19:11:00,23.1,6.0,30.43,SSW,210,0.0,-999.0,47,-99.99,,,0.00,weatherlink.com 1.10,2013-01-28 00:11:00,
2013-01-27 19:25:00,23.2,6.0,30.43,SSW,210,0.0,-999.0,47,-99.99,,,0.00,weatherlink.com 1.10,2013-01-28 00:25:00,
2013-01-27 19:40:00,22.6,9.0,30.43,SSW,210,0.0,-999.0,55,-99.99,,,0.00,weatherlink.com 1.10,2013-01-28 00:40:00,
2013-01-27 19:55:00,22.0,5.0,30.44,SSW,210,0.0,-999.0,49,-99.99,,,0.00,weatherlink.com 1.10,2013-01-28 00:55:00,
2013-01-27 20:10:00,21.1,6.0,30.44,SSW,210,0.0,-999.0,53,-99.99,,,0.00,weatherlink.com 1.10,2013-01-28 01:10:00,
2013-01-27 20:25:00,20.8,6.0,30.44,SSW,210,0.0,-999.0,53,-99.99,,,0.00,weatherlink.com 1.10,2013-01-28 01:25:00,
2013-01-27 20:40:00,21.0,6.0,30.44,SSW,210,0.0,-999.0,52,-99.99,,,0.00,weatherlink.com 1.10,2013-01-28 01:40:00,
2013-01-27 20:55:00,20.6,5.0,30.44,SW,216,0.0,-999.0,51,-99.99,,,0.00,weatherlink.com 1.10,2013-01-28 01:55:00,
2013-01-27 21:10:00,20.9,7.0,30.44,NW,312,0.0,-999.0,56,-99.99,,,0.00,weatherlink.com 1.10,2013-01-28 02:10:00,
2013-01-27 21:25:00,19.4,6.0,30.45,NW,312,1.0,-999.0,57,-99.99,,,0.00,weatherlink.com 1.10,2013-01-28 02:25:00,
2013-01-27 21:40:00,19.8,6.0,30.44,NW,310,0.0,-999.0,55,-99.99,,,0.00,weatherlink.com 1.10,2013-01-28 02:40:00,
2013-01-27 21:55:00,19.3,7.0,30.45,West,275,0.0,-999.0,60,-99.99,,,0.00,weatherlink.com 1.10,2013-01-28 02:55:00,
2013-01-27 22:10:00,19.4,6.0,30.45,West,275,0.0,-999.0,56,-99.99,,,0.00,weatherlink.com 1.10,2013-01-28 03:10:00,
2013-01-27 22:25:00,19.9,6.0,30.45,West,275,0.0,-999.0,54,-99.99,,,0.00,weatherlink.com 1.10,2013-01-28 03:25:00,
2013-01-27 22:40:00,19.8,6.0,30.45,West,275,0.0,-999.0,55,-99.99,,,0.00,weatherlink.com 1.10,2013-01-28 03:40:00,
2013-01-27 22:56:00,18.6,6.0,30.46,West,275,0.0,-999.0,59,-99.99,,,0.00,weatherlink.com 1.10,2013-01-28 03:56:00,
2013-01-27 23:11:00,19.1,6.0,30.46,West,275,0.0,-999.0,57,-99.99,,,0.00,weatherlink.com 1.10,2013-01-28 04:11:00,
2013-01-27 23:26:00,19.6,6.0,30.46,West,275,0.0,-999.0,56,-99.99,,,0.00,weatherlink.com 1.10,2013-01-28 04:26:00,
2013-01-27 23:40:00,18.7,6.0,30.46,West,272,0.0,-999.0,59,-99.99,,,0.00,weatherlink.com 1.10,2013-01-28 04:40:00,
2013-01-27 23:56:00,19.1,6.0,30.45,West,272,0.0,-999.0,57,-99.99,,,0.00,weatherlink.com 1.10,2013-01-28 04:56:00,